Mineral Point, WI

3:18 AM CDT on August 29, 2015 (GMT -0500)
KWIMINER1 | | Change Station
CLOSE
Current Station
Personal Weather Station
Location: Mineral Point, WI
Elevation: 1066 ft
Nearby Weather Stations

Elev 1066 ft 42.85 °N, 90.18 °W | Updated 3 minutes ago

Rain
Rain
62.6 °F
Feels Like 62.6 °F
N
0.0
Wind Variable Wind from ESE
Gusts 4.0 mph

Today
High -- | Low -- °F
--% Chance of Precip.
Yesterday
High -- | Low -- °F
Precip. -- in
6:21 AM 7:40 PM
Full, 100% visible
Pressure 29.98 in
Visibility 4.0 miles
Clouds Overcast 400 ft
Dew Point 63 °F
Humidity 100%
Rainfall 0.89 in
Snow Depth Not available.
UV 0 out of 12
Pollen 8.10 out of 12
Air Quality Not available.
Flu Activity Not available.
METAR KMRJ 290755Z AUTO 12005KT 4SM RA OVC004 18/17 A2998 RMK AO2 P0011
Pressure 29.98 in
Visibility 4.0 miles
Clouds Overcast 400 ft
Dew Point 63 °F
Humidity 100%
Rainfall 0.89 in
Snow Depth Not available.
UV 0 out of 12
Pollen 8.10 out of 12
Air Quality Not available.
Flu Activity Not available.
METAR KMRJ 290755Z AUTO 12005KT 4SM RA OVC004 18/17 A2998 RMK AO2 P0011

10-Day Weather Forecast

×

Almanac

Astronomy

Aug. 29, 2015 Rise Set
Actual Time
Civil Twilight
Nautical Twilight
Astronomical Twilight
Moon
Length of Visible Light
Length of Day
Tomorrow will be .
, % of the Moon is Illuminated

Today's Extremes

State Highs State Lows

Community

WunderPhotos

Upload Photos

1,850,634 photos uploaded!

WunderBlogs® & News

Nearby

Air Quality

  Air Quality AQ Index Pollutant
Not available.

Snow Depth

Station Depth Elevation

Earthquake Activity

City Distance Mag. Time & Date
Minimum magnitude displayed is 2.5.

Coastal Water Temperatures

Place Temperature

Stations

Nearby Weather Stations

Station Location Temp. Windchill Dew Point Humidity Wind Precip. Elev Updated Type